METAR Reports From Nearby Airports

 

KLUD - Decatur, Texas, USA
Distance from Wildwood: ESE 5mi, 8km
Mise à jour: Apr 08, 2020 3:55pm
clair
clair
 Wind from OSO
Vent: OSO 12 mph , 19 km/h, Rafale: 21 mph , 33 km/h
Température: 91°F , 33°C
Point de rosée: 45°F , 7°C
Humidité: 20%
Baromètre: 29.78 inHg , 1008.5 hPa
Clouds: clair
Visibility: 10 miles , 16 km
2020/04/08 20:55 KLUD 082055Z AUTO 24010G18KT 10SM CLR 33/07 A2978 RMK AO2 T03300065
KXBP - Bridgeport, Texas, USA
Distance from Wildwood: OSO 11mi, 18km
Mise à jour: Apr 08, 2020 3:55pm
clair
clair
 Wind from O
Vent: O 10 mph , 17 km/h, Rafale: 20 mph , 31 km/h
Température: 91°F , 33°C
Point de rosée: 46°F , 8°C
Humidité: 21%
Baromètre: 29.79 inHg , 1008.8 hPa
Clouds: clair
Visibility: 10 miles , 16 km
2020/04/08 20:55 KXBP 082055Z AUTO 26009G17KT 10SM CLR 33/08 A2979 RMK AO2 T03300075
 
K0F2 - Bowie, Texas, USA
Distance from Wildwood: NNO 24mi, 39km
Mise à jour: Apr 08, 2020 3:55pm
clair
clair
 Wind from O
Vent: O 13 mph , 20 km/h, Rafale: 17 mph , 28 km/h
Température: 93°F , 34°C
Point de rosée: 52°F , 11°C
Humidité: 24%
Baromètre: 29.80 inHg , 1009.1 hPa
Clouds: clair
Visibility: 10 miles , 16 km
2020/04/08 20:55 K0F2 082055Z AUTO 26011G15KT 10SM CLR 34/11 A2980 RMK AO2 6//// T033
KDTO - Denton, Texas, USA
Distance from Wildwood: E 27mi, 44km
Mise à jour: Apr 08, 2020 3:53pm
clair
clair
 Wind from OSO
Vent: OSO 15 mph , 24 km/h, Rafale: 23 mph , 37 km/h
Température: 93°F , 34°C
Point de rosée: 48°F , 9°C
Humidité: 21%
Baromètre: 29.76 inHg , 1007.8 hPa
Clouds: clair
Visibility: 10 miles , 16 km
2020/04/08 20:53 KDTO 082053Z 25013G20KT 10SM CLR 34/09 A2976 RMK AO2 SLP067 T03390094 56024
 
KAFW - Ft Worth/Allianc, Texas, USA
Distance from Wildwood: SE 29mi, 46km
Mise à jour: Apr 08, 2020 3:53pm
Partly Cloudy
Partly Cloudy
 Wind from OSO
Vent: OSO 14 mph , 22 km/h
Température: 93°F , 34°C
Point de rosée: 54°F , 12°C
Humidité: 26%
Baromètre: 29.76 inHg , 1007.8 hPa
Clouds: Partly Cloudy
Visibility: 10 miles , 16 km
Cloud details: Partly Cloudy 30000 ft
2020/04/08 20:53 KAFW 082053Z 24012KT 10SM SCT300 34/12 A2976 RMK AO2 SLP062 T03390117 58022
KFTW - Fort Worth, Texas, USA
Distance from Wildwood: SSE 34mi, 55km
Mise à jour: Apr 08, 2020 3:53pm
clair
clair
 Wind from OSO
Vent: OSO 15 mph , 24 km/h, Rafale: 23 mph , 37 km/h
Température: 90°F , 32°C
Point de rosée: 55°F , 13°C
Humidité: 31%
Baromètre: 29.76 inHg , 1007.8 hPa
Clouds: clair
Visibility: 10 miles , 16 km
2020/04/08 20:53 KFTW 082053Z 24013G20KT 10SM CLR 32/13 A2976 RMK AO2 SLP069 T03220133 58024
 
KNFW - Fort Worth Nas, Texas, USA
Distance from Wildwood: SSE 36mi, 58km
Mise à jour: Apr 08, 2020 3:52pm
Few Clouds
Few Clouds
 Wind from O
Vent: O 18 mph , 30 km/h, Rafale: 23 mph , 37 km/h
Température: 95°F , 35°C
Point de rosée: 52°F , 11°C
Humidité: 23%
Baromètre: 29.77 inHg , 1008.1 hPa
Clouds: Few Clouds
Visibility: 10 miles , 16 km
Cloud details: Few Clouds 15000 ft
Few Clouds 25000 ft
2020/04/08 20:52 KNFW 082052Z 26016G20KT 10SM FEW150 FEW250 35/11 A2977 RMK AO2 PK WND 25026/2027 SLP067 T03500106 56020 VISNO N $
KGLE - Gainesville, Texas, USA
Distance from Wildwood: NE 38mi, 61km
Mise à jour: Apr 08, 2020 3:55pm
clair
clair
 Wind from SO
Vent: SO 14 mph , 22 km/h, Rafale: 18 mph , 30 km/h
Température: 91°F , 33°C
Point de rosée: 52°F , 11°C
Humidité: 26%
Baromètre: 29.78 inHg , 1008.5 hPa
Clouds: clair
Visibility: 10 miles , 16 km
2020/04/08 20:55 KGLE 082055Z AUTO 23012G16KT 10SM CLR 33/11 A2978 RMK AO2 T03280111 PWINO
 
KMWL - Mineral Wells, Texas, USA
Distance from Wildwood: SO 41mi, 65km
Mise à jour: Apr 08, 2020 3:53pm
clair
clair
 Wind from O
Vent: O 13 mph , 20 km/h
Température: 93°F , 34°C
Point de rosée: 43°F , 6°C
Humidité: 17%
Baromètre: 29.79 inHg , 1008.8 hPa
Clouds: clair
Visibility: 8 miles , 13 km
2020/04/08 20:53 KMWL 082053Z AUTO 26011KT 8SM CLR 34/06 A2979 RMK AO2 SLP072 T03440061 56018
KDFW - Dallas/Ft Worth, Texas, USA
Distance from Wildwood: ESE 45mi, 73km
Mise à jour: Apr 08, 2020 3:53pm
Partly Cloudy
Partly Cloudy
 Wind from O
Vent: O 17 mph , 28 km/h, Rafale: 24 mph , 39 km/h
Température: 95°F , 35°C
Point de rosée: 54°F , 12°C
Humidité: 25%
Baromètre: 29.75 inHg , 1007.5 hPa
Clouds: Partly Cloudy
Visibility: 10 miles , 16 km
Cloud details: Partly Cloudy 30000 ft
2020/04/08 20:53 KDFW 082053Z 26015G21KT 10SM SCT300 35/12 A2975 RMK AO2 PK WND 24029/2005 SLP064 T03500122 56024